Time;durP1;ratioP1;P1;durP2;ratioP2;P2;SDS_P1;SDS_P2;PMS_P1;PMS_P2;Temp;Humidity;BMP_temperature;BMP_pressure;BME280_temperature;BME280_humidity;BME280_pressure;Samples;Min_cycle;Max_cycle;Signal;HPM_P1;HPM_P2
2023/12/09 00:02:07;;;;;;;6.38;1.55;;;;;;;;;;5074601;28;20052;-77
2023/12/09 00:04:37;;;;;;;3.17;1.05;;;;;;;;;;5087547;28;20417;-76
2023/12/09 00:07:07;;;;;;;2.80;1.50;;;;;;;;;;5075916;28;20052;-77
2023/12/09 00:09:37;;;;;;;4.13;1.60;;;;;;;;;;5074477;28;20047;-77
2023/12/09 00:12:07;;;;;;;2.67;1.45;;;;;;;;;;5074205;28;20056;-77
2023/12/09 00:14:37;;;;;;;3.80;1.70;;;;;;;;;;5073995;28;20498;-79
2023/12/09 00:17:07;;;;;;;5.97;1.70;;;;;;;;;;5074161;28;20048;-78
2023/12/09 00:19:38;;;;;;;4.13;1.10;;;;;;;;;;5079245;28;20409;-80
2023/12/09 00:22:09;;;;;;;7.93;1.58;;;;;;;;;;5093976;28;20145;-77
2023/12/09 00:24:39;;;;;;;6.75;1.55;;;;;;;;;;5094020;28;20067;-77
2023/12/09 00:27:09;;;;;;;7.85;1.20;;;;;;;;;;5094104;28;20415;-78
2023/12/09 00:29:40;;;;;;;3.88;1.50;;;;;;;;;;5075347;28;20039;-77
2023/12/09 00:32:09;;;;;;;5.80;1.40;;;;;;;;;;5093070;28;20043;-77
2023/12/09 00:34:39;;;;;;;4.78;0.93;;;;;;;;;;5093340;28;20379;-77
2023/12/09 00:37:09;;;;;;;4.22;1.30;;;;;;;;;;5094132;28;20048;-78
2023/12/09 00:39:39;;;;;;;5.15;1.67;;;;;;;;;;5094564;28;20055;-79
2023/12/09 00:42:11;;;;;;;10.05;1.50;;;;;;;;;;5093650;28;20055;-81
2023/12/09 00:44:42;;;;;;;3.05;1.50;;;;;;;;;;5075424;28;20059;-79
2023/12/09 00:47:12;;;;;;;10.00;1.42;;;;;;;;;;5094204;28;20055;-78
2023/12/09 00:49:44;;;;;;;6.15;1.50;;;;;;;;;;5088221;28;20051;-79
2023/12/09 00:52:15;;;;;;;4.93;1.30;;;;;;;;;;5074114;28;20045;-79
2023/12/09 00:54:45;;;;;;;11.00;2.40;;;;;;;;;;5092749;28;20059;-79
2023/12/09 00:57:16;;;;;;;7.68;1.70;;;;;;;;;;5093014;28;20040;-79
2023/12/09 00:59:47;;;;;;;3.22;1.52;;;;;;;;;;5094196;28;20072;-79
2023/12/09 01:02:17;;;;;;;6.07;1.67;;;;;;;;;;5093897;28;20051;-83
2023/12/09 01:04:48;;;;;;;6.70;1.75;;;;;;;;;;5076616;28;20055;-78
2023/12/09 01:07:18;;;;;;;6.07;1.40;;;;;;;;;;5093799;28;20044;-79
2023/12/09 01:09:48;;;;;;;5.28;2.00;;;;;;;;;;5092035;28;20513;-78
2023/12/09 01:12:18;;;;;;;5.60;1.80;;;;;;;;;;5093147;28;20036;-79
2023/12/09 01:14:48;;;;;;;12.95;2.00;;;;;;;;;;5093875;28;20048;-77
2023/12/09 01:17:18;;;;;;;3.90;1.95;;;;;;;;;;5092899;28;20040;-76
2023/12/09 01:19:49;;;;;;;4.43;1.65;;;;;;;;;;5093581;28;20044;-83
2023/12/09 01:22:19;;;;;;;9.13;2.10;;;;;;;;;;5092683;28;20047;-78
2023/12/09 01:24:49;;;;;;;3.45;1.20;;;;;;;;;;5093023;28;20403;-82
2023/12/09 01:27:20;;;;;;;7.70;1.90;;;;;;;;;;5093327;28;20040;-78
2023/12/09 01:29:50;;;;;;;8.02;1.48;;;;;;;;;;5093621;28;20383;-78
2023/12/09 01:32:20;;;;;;;6.85;2.08;;;;;;;;;;5093145;28;20055;-81
2023/12/09 01:34:50;;;;;;;7.18;2.22;;;;;;;;;;5092670;28;20040;-79
2023/12/09 01:37:20;;;;;;;9.07;2.60;;;;;;;;;;5092734;28;20044;-82
2023/12/09 01:39:50;;;;;;;8.00;3.05;;;;;;;;;;5061617;28;20051;-78
2023/12/09 01:42:21;;;;;;;5.82;2.40;;;;;;;;;;5093009;28;20047;-79
2023/12/09 01:44:51;;;;;;;5.47;2.17;;;;;;;;;;5057038;28;20068;-79
2023/12/09 01:47:21;;;;;;;6.28;2.10;;;;;;;;;;5085624;28;20534;-80
2023/12/09 01:49:51;;;;;;;4.30;2.10;;;;;;;;;;5082997;28;20055;-85
2023/12/09 01:52:21;;;;;;;7.55;2.22;;;;;;;;;;5071637;28;20048;-80
2023/12/09 01:54:52;;;;;;;5.05;1.90;;;;;;;;;;5078395;28;20047;-79
2023/12/09 01:57:23;;;;;;;11.60;2.05;;;;;;;;;;5092824;28;20443;-81
2023/12/09 01:59:53;;;;;;;5.78;2.30;;;;;;;;;;5092492;28;20040;-79
2023/12/09 02:02:23;;;;;;;5.68;1.85;;;;;;;;;;5092872;28;20056;-79
2023/12/09 02:04:55;;;;;;;7.20;1.67;;;;;;;;;;5092790;28;20398;-79
2023/12/09 02:07:28;;;;;;;8.05;2.00;;;;;;;;;;5093048;28;20036;-79
2023/12/09 02:09:58;;;;;;;3.53;1.50;;;;;;;;;;5092278;28;20410;-79
2023/12/09 02:12:56;;;;;;;6.65;2.63;;;;;;;;;;5092491;28;20044;-78
2023/12/09 02:15:33;;;;;;;5.10;2.33;;;;;;;;;;5079672;28;20055;-79
2023/12/09 02:18:08;;;;;;;7.78;2.10;;;;;;;;;;5092448;28;20103;-79
2023/12/09 02:20:40;;;;;;;7.25;2.17;;;;;;;;;;5076284;28;20049;-78
2023/12/09 02:23:12;;;;;;;6.35;2.08;;;;;;;;;;5072017;28;20044;-78
2023/12/09 02:25:42;;;;;;;6.10;2.15;;;;;;;;;;5072146;28;20047;-79
2023/12/09 02:28:20;;;;;;;9.15;2.13;;;;;;;;;;5071331;28;20055;-79
2023/12/09 02:30:55;;;;;;;5.25;1.90;;;;;;;;;;5054072;28;20048;-79
2023/12/09 02:33:26;;;;;;;6.18;2.17;;;;;;;;;;5054309;28;20056;-79
2023/12/09 02:35:58;;;;;;;4.38;1.95;;;;;;;;;;5071675;28;20052;-82
2023/12/09 02:38:31;;;;;;;7.75;2.00;;;;;;;;;;5071873;28;20494;-78
2023/12/09 02:41:02;;;;;;;11.80;1.95;;;;;;;;;;5052995;28;20044;-77
2023/12/09 02:43:33;;;;;;;5.45;2.15;;;;;;;;;;5071502;28;20049;-81
2023/12/09 02:46:03;;;;;;;8.27;2.33;;;;;;;;;;5071965;28;20053;-79
2023/12/09 02:48:34;;;;;;;7.88;2.17;;;;;;;;;;5071859;28;20502;-80
2023/12/09 02:51:07;;;;;;;4.28;2.20;;;;;;;;;;5056824;28;20055;-78
2023/12/09 02:53:36;;;;;;;;;;;;;;;;;;5066127;28;20051;-78
2023/12/09 02:56:06;;;;;;;3.53;1.50;;;;;;;;;;5091556;28;20329;-82
2023/12/09 02:58:36;;;;;;;5.13;1.83;;;;;;;;;;5091644;28;20050;-78
2023/12/09 03:01:07;;;;;;;8.63;1.95;;;;;;;;;;5072799;28;20051;-78
2023/12/09 03:03:37;;;;;;;5.25;2.25;;;;;;;;;;5092127;28;20044;-77
2023/12/09 03:06:08;;;;;;;10.45;1.90;;;;;;;;;;5074011;28;20036;-78
2023/12/09 03:08:38;;;;;;;4.03;2.08;;;;;;;;;;5091757;28;20048;-80
2023/12/09 03:11:08;;;;;;;4.22;2.88;;;;;;;;;;5073128;28;20055;-79
2023/12/09 03:13:39;;;;;;;5.90;2.22;;;;;;;;;;5091854;28;20044;-77
2023/12/09 03:16:10;;;;;;;8.00;2.15;;;;;;;;;;5092091;28;20055;-77
2023/12/09 03:18:41;;;;;;;5.57;2.05;;;;;;;;;;5092509;28;20043;-78
2023/12/09 03:21:15;;;;;;;4.63;2.40;;;;;;;;;;5092807;28;20048;-80
2023/12/09 03:23:45;;;;;;;6.20;2.30;;;;;;;;;;5075176;28;20044;-78
2023/12/09 03:26:19;;;;;;;8.60;2.15;;;;;;;;;;5092518;28;20055;-78
2023/12/09 03:28:49;;;;;;;6.60;2.00;;;;;;;;;;5092873;28;20433;-77
2023/12/09 03:31:20;;;;;;;7.55;2.30;;;;;;;;;;5074019;28;20048;-79
2023/12/09 03:33:51;;;;;;;5.10;1.92;;;;;;;;;;5080035;28;20044;-77
2023/12/09 03:36:21;;;;;;;5.20;1.73;;;;;;;;;;5072899;28;20386;-77
2023/12/09 03:38:51;;;;;;;6.72;2.13;;;;;;;;;;5072968;28;20051;-77
2023/12/09 03:41:21;;;;;;;3.72;2.30;;;;;;;;;;5076878;28;20044;-79
2023/12/09 03:43:53;;;;;;;;;;;;;;;;;;5076592;28;20056;-79
2023/12/09 03:46:23;;;;;;;4.90;1.67;;;;;;;;;;5075739;28;19920;-77
2023/12/09 03:48:53;;;;;;;6.18;2.30;;;;;;;;;;5076042;28;20040;-77
2023/12/09 03:51:23;;;;;;;4.15;1.95;;;;;;;;;;5076138;28;20063;-77
2023/12/09 03:53:54;;;;;;;6.43;2.08;;;;;;;;;;5076006;28;20425;-77
2023/12/09 03:56:24;;;;;;;5.07;2.05;;;;;;;;;;5076050;28;20045;-78
2023/12/09 03:58:54;;;;;;;4.53;2.28;;;;;;;;;;5076725;28;20067;-77
2023/12/09 04:01:24;;;;;;;9.52;2.83;;;;;;;;;;5075771;28;20114;-78
2023/12/09 04:03:55;;;;;;;5.25;2.72;;;;;;;;;;5076077;28;20067;-78
2023/12/09 04:06:24;;;;;;;10.15;3.20;;;;;;;;;;5057488;28;20059;-77
2023/12/09 04:08:55;;;;;;;6.78;2.70;;;;;;;;;;5076300;28;20471;-77
2023/12/09 04:11:25;;;;;;;7.28;3.17;;;;;;;;;;5075812;28;20045;-78
2023/12/09 04:13:55;;;;;;;7.25;3.10;;;;;;;;;;5075648;28;20044;-77
2023/12/09 04:16:25;;;;;;;10.70;2.63;;;;;;;;;;5075922;28;20045;-81
2023/12/09 04:18:55;;;;;;;7.30;2.78;;;;;;;;;;5076001;28;20040;-81
2023/12/09 04:21:27;;;;;;;;;;;;;;;;;;5075936;28;20051;-78
2023/12/09 04:23:57;;;;;;;6.03;2.55;;;;;;;;;;5076123;28;19943;-81
2023/12/09 04:26:30;;;;;;;5.50;2.63;;;;;;;;;;5075981;28;20040;-78
2023/12/09 04:29:00;;;;;;;8.20;2.20;;;;;;;;;;5076122;28;20494;-82
2023/12/09 04:31:29;;;;;;;5.00;1.85;;;;;;;;;;5075395;28;20407;-79
2023/12/09 04:33:59;;;;;;;9.43;2.45;;;;;;;;;;5075325;28;20048;-82
2023/12/09 04:36:32;;;;;;;7.90;3.05;;;;;;;;;;5075878;28;20040;-78
2023/12/09 04:39:03;;;;;;;7.50;2.50;;;;;;;;;;5075416;28;20047;-80
2023/12/09 04:41:33;;;;;;;4.60;2.08;;;;;;;;;;5075385;28;20041;-78
2023/12/09 04:44:03;;;;;;;8.10;2.30;;;;;;;;;;5075171;28;20055;-78
2023/12/09 04:46:33;;;;;;;5.97;2.50;;;;;;;;;;5075145;28;20040;-79
2023/12/09 04:49:03;;;;;;;9.02;2.28;;;;;;;;;;5056564;28;20051;-78
2023/12/09 04:51:33;;;;;;;5.53;2.40;;;;;;;;;;5075085;28;20045;-78
2023/12/09 04:54:05;;;;;;;6.40;2.55;;;;;;;;;;5075057;28;20055;-78
2023/12/09 04:56:35;;;;;;;5.20;2.20;;;;;;;;;;5075481;28;20044;-77
2023/12/09 04:59:05;;;;;;;8.30;2.33;;;;;;;;;;5074810;28;20067;-82
2023/12/09 05:01:35;;;;;;;8.40;2.00;;;;;;;;;;5072676;28;20079;-78
2023/12/09 05:04:05;;;;;;;5.35;1.63;;;;;;;;;;5074744;28;20343;-78
2023/12/09 05:06:35;;;;;;;7.57;2.78;;;;;;;;;;5075253;28;20052;-77
2023/12/09 05:09:05;;;;;;;6.38;2.15;;;;;;;;;;5074793;28;20041;-77
2023/12/09 05:11:35;;;;;;;9.10;2.22;;;;;;;;;;5075000;28;20044;-77
2023/12/09 05:14:06;;;;;;;6.65;2.13;;;;;;;;;;5074841;28;20040;-77
2023/12/09 05:16:36;;;;;;;5.30;1.92;;;;;;;;;;5074819;28;20044;-77
2023/12/09 05:19:07;;;;;;;10.70;2.08;;;;;;;;;;5074586;28;20055;-77
2023/12/09 05:21:37;;;;;;;8.00;1.98;;;;;;;;;;5074762;28;20040;-78
2023/12/09 05:24:09;;;;;;;5.28;1.95;;;;;;;;;;5074619;28;20044;-77
2023/12/09 05:26:39;;;;;;;10.52;3.45;;;;;;;;;;5074271;28;20071;-78
2023/12/09 05:29:09;;;;;;;7.57;2.75;;;;;;;;;;5074408;28;20037;-77
2023/12/09 05:31:40;;;;;;;7.82;2.50;;;;;;;;;;5074449;28;20487;-77
2023/12/09 05:34:11;;;;;;;4.32;2.10;;;;;;;;;;5074446;28;20048;-76
2023/12/09 05:36:42;;;;;;;4.63;2.45;;;;;;;;;;5074475;28;20052;-81
2023/12/09 05:39:12;;;;;;;21.40;2.00;;;;;;;;;;5057370;28;20395;-77
2023/12/09 05:41:44;;;;;;;9.73;2.08;;;;;;;;;;5074240;28;20044;-80
2023/12/09 05:44:15;;;;;;;3.83;2.08;;;;;;;;;;5074683;28;20049;-77
2023/12/09 05:46:45;;;;;;;6.00;2.60;;;;;;;;;;5074179;28;20051;-81
2023/12/09 05:49:15;;;;;;;5.25;1.77;;;;;;;;;;5074112;28;20047;-78
2023/12/09 05:51:46;;;;;;;10.75;2.45;;;;;;;;;;5074501;28;20055;-78
2023/12/09 05:54:16;;;;;;;4.22;1.85;;;;;;;;;;5073844;28;20049;-77
2023/12/09 05:56:51;;;;;;;4.32;1.50;;;;;;;;;;5056720;28;20387;-80
2023/12/09 05:59:21;;;;;;;5.55;2.20;;;;;;;;;;5074090;28;20041;-77
2023/12/09 06:01:51;;;;;;;4.82;2.20;;;;;;;;;;5073613;28;20052;-81
2023/12/09 06:04:21;;;;;;;3.65;2.10;;;;;;;;;;5073492;28;20438;-77
2023/12/09 06:06:51;;;;;;;4.63;1.90;;;;;;;;;;5073898;28;20056;-76
2023/12/09 06:09:21;;;;;;;5.65;2.63;;;;;;;;;;5073598;28;20051;-77
2023/12/09 06:11:51;;;;;;;7.80;2.20;;;;;;;;;;5073258;28;20051;-80
2023/12/09 06:14:21;;;;;;;4.40;2.00;;;;;;;;;;5073952;28;20044;-79
2023/12/09 06:16:51;;;;;;;5.93;2.38;;;;;;;;;;5073287;28;20055;-80
2023/12/09 06:19:21;;;;;;;6.57;2.25;;;;;;;;;;5055618;28;20071;-81
2023/12/09 06:21:52;;;;;;;7.07;1.90;;;;;;;;;;5073437;28;20051;-81
2023/12/09 06:24:21;;;;;;;6.75;2.30;;;;;;;;;;5073266;28;20048;-79
2023/12/09 06:26:53;;;;;;;5.90;2.22;;;;;;;;;;5074088;28;20490;-79
2023/12/09 06:29:23;;;;;;;8.60;2.60;;;;;;;;;;5073712;28;20529;-81
2023/12/09 06:31:53;;;;;;;4.80;2.65;;;;;;;;;;5073411;28;20041;-79
2023/12/09 06:34:23;;;;;;;6.80;2.58;;;;;;;;;;5073144;28;20051;-79
2023/12/09 06:36:53;;;;;;;9.25;2.70;;;;;;;;;;5073347;28;20048;-83
2023/12/09 06:39:23;;;;;;;6.50;3.97;;;;;;;;;;5055504;28;20052;-81
2023/12/09 06:41:53;;;;;;;4.97;2.67;;;;;;;;;;5073608;28;20049;-79
2023/12/09 06:44:24;;;;;;;4.57;2.40;;;;;;;;;;5054717;28;20479;-78
2023/12/09 06:46:53;;;;;;;5.00;2.22;;;;;;;;;;5072866;28;20382;-80
2023/12/09 06:49:23;;;;;;;10.75;2.45;;;;;;;;;;5073368;28;20060;-79
2023/12/09 06:51:54;;;;;;;7.45;2.53;;;;;;;;;;5073130;28;20051;-79
2023/12/09 06:54:25;;;;;;;6.22;2.35;;;;;;;;;;5073195;28;20390;-78
2023/12/09 06:56:56;;;;;;;10.98;2.63;;;;;;;;;;5072994;28;20044;-81
2023/12/09 06:59:27;;;;;;;4.65;2.50;;;;;;;;;;5073174;28;20048;-79
2023/12/09 07:01:58;;;;;;;4.90;2.20;;;;;;;;;;5065217;28;20382;-82
2023/12/09 07:04:33;;;;;;;8.38;2.90;;;;;;;;;;5093005;28;20106;-79
2023/12/09 07:07:03;;;;;;;12.48;3.03;;;;;;;;;;5093384;28;20043;-80
2023/12/09 07:09:35;;;;;;;5.68;2.63;;;;;;;;;;5075274;28;20490;-79
2023/12/09 07:12:05;;;;;;;6.85;2.17;;;;;;;;;;5074319;28;20044;-78
2023/12/09 07:14:35;;;;;;;6.93;2.95;;;;;;;;;;5074390;28;20051;-78
2023/12/09 07:17:05;;;;;;;7.22;3.35;;;;;;;;;;5092997;28;20044;-79
2023/12/09 07:19:35;;;;;;;6.82;2.63;;;;;;;;;;5093290;28;20067;-78
2023/12/09 07:22:06;;;;;;;8.32;2.83;;;;;;;;;;5092810;28;20052;-78
2023/12/09 07:24:35;;;;;;;7.90;2.38;;;;;;;;;;5093016;28;20052;-81
2023/12/09 07:27:05;;;;;;;8.23;2.25;;;;;;;;;;5092806;28;20449;-79
2023/12/09 07:29:35;;;;;;;8.23;1.92;;;;;;;;;;5093492;28;20394;-79
2023/12/09 07:32:05;;;;;;;6.28;2.58;;;;;;;;;;5092658;28;20052;-78
2023/12/09 07:34:36;;;;;;;4.90;2.53;;;;;;;;;;5074269;28;20071;-81
2023/12/09 07:37:06;;;;;;;6.72;2.40;;;;;;;;;;5074102;28;20048;-81
2023/12/09 07:39:35;;;;;;;6.57;2.10;;;;;;;;;;5093142;28;20146;-79
2023/12/09 07:42:07;;;;;;;10.57;2.60;;;;;;;;;;5074121;28;20500;-80
2023/12/09 07:44:37;;;;;;;4.88;2.25;;;;;;;;;;5092716;28;20482;-79
2023/12/09 07:47:08;;;;;;;4.47;2.10;;;;;;;;;;5092804;28;20047;-78
2023/12/09 07:49:38;;;;;;;5.75;2.63;;;;;;;;;;5074949;28;20055;-80
2023/12/09 07:52:08;;;;;;;8.07;2.50;;;;;;;;;;5092364;28;20051;-81
2023/12/09 07:54:38;;;;;;;6.63;2.40;;;;;;;;;;5092418;28;20040;-78
2023/12/09 07:57:08;;;;;;;4.75;2.35;;;;;;;;;;5074186;28;20052;-80
2023/12/09 07:59:38;;;;;;;6.88;2.72;;;;;;;;;;5092652;28;20044;-81
2023/12/09 08:02:09;;;;;;;7.50;2.35;;;;;;;;;;5092605;28;20048;-80
2023/12/09 08:04:39;;;;;;;4.95;2.47;;;;;;;;;;5092495;28;20044;-79
2023/12/09 08:07:08;;;;;;;5.90;2.35;;;;;;;;;;5092803;28;20048;-80
2023/12/09 08:09:38;;;;;;;6.38;2.60;;;;;;;;;;5092350;28;20048;-80
2023/12/09 08:12:09;;;;;;;4.90;3.13;;;;;;;;;;5092583;28;20059;-79
2023/12/09 08:14:39;;;;;;;3.67;2.35;;;;;;;;;;5092268;28;20070;-80
2023/12/09 08:17:09;;;;;;;5.53;2.53;;;;;;;;;;5092327;28;20044;-80
2023/12/09 08:19:39;;;;;;;4.75;1.77;;;;;;;;;;5071758;28;20398;-80
2023/12/09 08:22:09;;;;;;;3.88;2.13;;;;;;;;;;5074539;28;20044;-80
2023/12/09 08:24:42;;;;;;;4.25;2.63;;;;;;;;;;5091291;28;20044;-80
2023/12/09 08:27:12;;;;;;;4.50;2.15;;;;;;;;;;5076420;28;20044;-80
2023/12/09 08:29:42;;;;;;;8.88;2.28;;;;;;;;;;5095753;28;20165;-79
2023/12/09 08:32:12;;;;;;;5.70;2.72;;;;;;;;;;5096015;28;20044;-79
2023/12/09 08:34:42;;;;;;;6.05;2.58;;;;;;;;;;5095239;28;20048;-79
2023/12/09 08:37:27;;;;;;;6.70;2.78;;;;;;;;;;5095640;28;20047;-79
2023/12/09 08:40:01;;;;;;;10.75;2.80;;;;;;;;;;5076792;28;20070;-79
2023/12/09 08:42:32;;;;;;;6.60;2.80;;;;;;;;;;5095679;28;20051;-79
2023/12/09 08:45:02;;;;;;;9.30;2.85;;;;;;;;;;5095688;28;20044;-80
2023/12/09 08:47:34;;;;;;;;;;;;;;;;;;5096134;28;20048;-80
2023/12/09 08:50:05;;;;;;;6.35;2.53;;;;;;;;;;5095295;28;19920;-79
2023/12/09 08:52:51;;;;;;;4.38;2.42;;;;;;;;;;5093142;28;20043;-78
2023/12/09 08:55:22;;;;;;;5.90;2.67;;;;;;;;;;5093861;28;20048;-78
2023/12/09 08:57:52;;;;;;;6.07;2.22;;;;;;;;;;5075282;28;20447;-78
2023/12/09 09:00:26;;;;;;;8.07;4.05;;;;;;;;;;5055939;28;20049;-78
2023/12/09 09:02:57;;;;;;;7.88;2.67;;;;;;;;;;5075170;28;20049;-79
2023/12/09 09:05:26;;;;;;;6.20;2.72;;;;;;;;;;5074776;28;20501;-79
2023/12/09 09:07:57;;;;;;;5.90;2.58;;;;;;;;;;5056456;28;20055;-78
2023/12/09 09:10:28;;;;;;;6.65;3.03;;;;;;;;;;5056976;28;20047;-80
2023/12/09 09:12:59;;;;;;;4.35;2.88;;;;;;;;;;5082561;28;20059;-79
2023/12/09 09:15:30;;;;;;;5.78;2.70;;;;;;;;;;5094299;28;20040;-81
2023/12/09 09:18:01;;;;;;;6.03;2.10;;;;;;;;;;5094631;28;20482;-80
2023/12/09 09:20:34;;;;;;;4.82;2.65;;;;;;;;;;5077707;28;20048;-79
2023/12/09 09:23:04;;;;;;;6.05;2.28;;;;;;;;;;5094660;28;20058;-81
2023/12/09 09:25:35;;;;;;;4.68;2.17;;;;;;;;;;5094731;28;20479;-80
2023/12/09 09:28:05;;;;;;;4.88;2.05;;;;;;;;;;5094369;28;20047;-80
2023/12/09 09:30:36;;;;;;;4.53;1.60;;;;;;;;;;5094502;28;20405;-80
2023/12/09 09:33:07;;;;;;;5.90;2.47;;;;;;;;;;5095297;28;20054;-79
2023/12/09 09:35:37;;;;;;;4.15;2.60;;;;;;;;;;5075747;28;20051;-80
2023/12/09 09:38:07;;;;;;;5.07;1.70;;;;;;;;;;5094363;28;20044;-79
2023/12/09 09:40:37;;;;;;;4.05;1.80;;;;;;;;;;5094756;28;20044;-80
2023/12/09 09:43:20;;;;;;;4.18;2.08;;;;;;;;;;5094467;28;20040;-78
2023/12/09 09:45:53;;;;;;;3.65;2.00;;;;;;;;;;5094681;28;20055;-80
2023/12/09 09:48:30;;;;;;;24.23;7.53;;;;;;;;;;5092907;28;20058;-79
2023/12/09 09:51:06;;;;;;;7.13;2.92;;;;;;;;;;5093534;28;20040;-79
2023/12/09 09:54:03;;;;;;;9.20;2.78;;;;;;;;;;5093376;28;20099;-80
2023/12/09 09:56:37;;;;;;;10.55;3.05;;;;;;;;;;5093099;28;20505;-84
2023/12/09 09:59:07;;;;;;;8.25;2.42;;;;;;;;;;5074317;28;20040;-79
2023/12/09 10:01:38;;;;;;;7.45;2.53;;;;;;;;;;5079730;28;20177;-79
2023/12/09 10:04:08;;;;;;;10.70;3.35;;;;;;;;;;5074705;28;20047;-81
2023/12/09 10:06:42;;;;;;;15.00;3.33;;;;;;;;;;5084449;28;20040;-80
2023/12/09 10:09:14;;;;;;;13.50;3.00;;;;;;;;;;5079722;28;20051;-80
2023/12/09 10:11:43;;;;;;;5.18;1.70;;;;;;;;;;5072574;28;20490;-79
2023/12/09 10:14:14;;;;;;;7.55;2.10;;;;;;;;;;5054744;28;20049;-80
2023/12/09 10:16:47;;;;;;;3.75;1.42;;;;;;;;;;5078227;28;20386;-79
2023/12/09 10:19:17;;;;;;;8.88;1.73;;;;;;;;;;5092067;28;20043;-83
2023/12/09 10:21:48;;;;;;;11.70;1.80;;;;;;;;;;5092233;28;20040;-84
2023/12/09 10:24:18;;;;;;;8.18;1.90;;;;;;;;;;5091984;28;20517;-87
2023/12/09 10:26:48;;;;;;;6.60;2.05;;;;;;;;;;5073081;28;20044;-80
2023/12/09 10:29:18;;;;;;;5.78;2.30;;;;;;;;;;5091887;28;20040;-84
2023/12/09 10:31:47;;;;;;;4.00;1.30;;;;;;;;;;5074569;28;20409;-83
2023/12/09 10:34:18;;;;;;;8.88;3.08;;;;;;;;;;5070077;28;20040;-83
2023/12/09 10:36:49;;;;;;;7.43;1.73;;;;;;;;;;5091622;28;20047;-83
2023/12/09 10:39:20;;;;;;;8.60;1.70;;;;;;;;;;5092367;28;20443;-78
2023/12/09 10:41:50;;;;;;;6.10;2.65;;;;;;;;;;5092639;28;20063;-82
2023/12/09 10:44:21;;;;;;;4.00;1.98;;;;;;;;;;5073145;28;20048;-82
2023/12/09 10:46:51;;;;;;;3.78;1.50;;;;;;;;;;5074438;28;20410;-82
2023/12/09 10:49:21;;;;;;;6.50;3.33;;;;;;;;;;5091620;28;20047;-82
2023/12/09 10:51:51;;;;;;;4.47;2.00;;;;;;;;;;5092202;28;20395;-81
2023/12/09 10:54:21;;;;;;;7.93;2.15;;;;;;;;;;5073733;28;20048;-81
2023/12/09 10:56:52;;;;;;;4.72;2.20;;;;;;;;;;5090808;28;20036;-81
2023/12/09 10:59:21;;;;;;;5.88;3.15;;;;;;;;;;5091426;28;20044;-82
2023/12/09 11:01:52;;;;;;;7.25;2.75;;;;;;;;;;5088907;28;20048;-82
2023/12/09 11:04:22;;;;;;;106.40;17.95;;;;;;;;;;5092158;28;20490;-86
2023/12/09 11:06:55;;;;;;;10.65;2.55;;;;;;;;;;5070073;28;20047;-84
2023/12/09 11:09:26;;;;;;;9.82;2.15;;;;;;;;;;5057058;28;20048;-84
2023/12/09 11:11:56;;;;;;;5.28;2.28;;;;;;;;;;5092314;28;20047;-84
2023/12/09 11:14:27;;;;;;;5.53;1.90;;;;;;;;;;5073752;28;20048;-86
2023/12/09 11:17:00;;;;;;;4.15;1.48;;;;;;;;;;5071918;28;20044;-82
2023/12/09 11:19:30;;;;;;;3.38;1.55;;;;;;;;;;5089148;28;20040;-85
2023/12/09 11:22:01;;;;;;;4.00;1.60;;;;;;;;;;5091408;28;20055;-82
2023/12/09 11:24:32;;;;;;;2.03;1.10;;;;;;;;;;5090727;28;20047;-83
2023/12/09 11:27:03;;;;;;;4.32;1.42;;;;;;;;;;5091638;28;20044;-82
2023/12/09 11:29:34;;;;;;;5.28;1.48;;;;;;;;;;5091840;28;20051;-84
2023/12/09 11:32:07;;;;;;;2.22;1.10;;;;;;;;;;5092126;28;20160;-82
2023/12/09 11:34:38;;;;;;;3.60;0.88;;;;;;;;;;5091648;28;20402;-87
2023/12/09 11:37:11;;;;;;;6.88;1.98;;;;;;;;;;5093330;28;20059;-82
2023/12/09 11:39:42;;;;;;;3.05;1.52;;;;;;;;;;5056301;28;20041;-86
2023/12/09 11:42:12;;;;;;;7.10;1.85;;;;;;;;;;5072159;28;20490;-84
2023/12/09 11:44:43;;;;;;;6.45;2.03;;;;;;;;;;5077522;28;20039;-84
2023/12/09 11:47:14;;;;;;;3.92;1.50;;;;;;;;;;5071254;28;20040;-83
2023/12/09 11:49:47;;;;;;;2.65;1.55;;;;;;;;;;5073275;28;20055;-82
2023/12/09 11:52:19;;;;;;;3.97;2.45;;;;;;;;;;5090391;28;20036;-82
2023/12/09 11:55:00;;;;;;;2.55;1.67;;;;;;;;;;5074418;28;20044;-84
2023/12/09 11:57:32;;;;;;;4.47;1.90;;;;;;;;;;5089447;28;20036;-81
2023/12/09 12:00:06;;;;;;;2.85;1.40;;;;;;;;;;5091018;28;20482;-83
2023/12/09 12:02:48;;;;;;;2.53;1.60;;;;;;;;;;5097564;28;20055;-82
2023/12/09 12:05:18;;;;;;;4.28;1.35;;;;;;;;;;5096417;28;20036;-83
2023/12/09 12:07:49;;;;;;;2.67;1.20;;;;;;;;;;5095575;28;20040;-82
2023/12/09 12:10:18;;;;;;;3.55;1.50;;;;;;;;;;5092408;28;20040;-82
2023/12/09 12:12:48;;;;;;;2.25;1.30;;;;;;;;;;5054296;28;20499;-82
2023/12/09 12:15:19;;;;;;;7.38;2.85;;;;;;;;;;5095165;28;20056;-84
2023/12/09 12:17:49;;;;;;;3.92;1.65;;;;;;;;;;5095089;28;20036;-86
2023/12/09 12:20:20;;;;;;;4.05;1.63;;;;;;;;;;5077562;28;20044;-85
2023/12/09 12:22:50;;;;;;;3.78;1.75;;;;;;;;;;5060371;28;20067;-85
2023/12/09 12:25:20;;;;;;;2.60;1.75;;;;;;;;;;5076465;28;20051;-83
2023/12/09 12:27:50;;;;;;;5.70;1.58;;;;;;;;;;5094570;28;20047;-86
2023/12/09 12:30:20;;;;;;;3.65;1.33;;;;;;;;;;5094886;28;20044;-83
2023/12/09 12:32:57;;;;;;;2.78;1.33;;;;;;;;;;5094579;28;20040;-86
2023/12/09 12:35:27;;;;;;;5.18;1.63;;;;;;;;;;5076572;28;20059;-86
2023/12/09 12:37:57;;;;;;;3.78;1.90;;;;;;;;;;5076834;28;20040;-83
2023/12/09 12:40:28;;;;;;;2.35;1.27;;;;;;;;;;5059872;28;20047;-83
2023/12/09 12:43:04;;;;;;;3.67;1.42;;;;;;;;;;5062753;28;20044;-83
2023/12/09 12:45:36;;;;;;;3.55;1.35;;;;;;;;;;5073965;28;20049;-83
2023/12/09 12:48:06;;;;;;;2.53;1.83;;;;;;;;;;5057137;28;20052;-82
2023/12/09 12:50:38;;;;;;;4.05;1.60;;;;;;;;;;5064189;28;20039;-86
2023/12/09 12:53:11;;;;;;;2.97;1.40;;;;;;;;;;5075685;28;20048;-85
2023/12/09 12:55:42;;;;;;;18.63;2.72;;;;;;;;;;5095201;28;20509;-82
2023/12/09 12:58:13;;;;;;;2.83;1.10;;;;;;;;;;5094310;28;20048;-81
2023/12/09 13:00:43;;;;;;;5.07;1.50;;;;;;;;;;5094428;28;20055;-85
2023/12/09 13:03:13;;;;;;;2.35;1.17;;;;;;;;;;5092770;28;20059;-83
2023/12/09 13:05:43;;;;;;;3.20;1.38;;;;;;;;;;5093627;28;20483;-83
2023/12/09 13:08:13;;;;;;;5.63;1.45;;;;;;;;;;5094067;28;20048;-86
2023/12/09 13:10:43;;;;;;;4.60;1.42;;;;;;;;;;5076644;28;20047;-85
2023/12/09 13:13:14;;;;;;;3.78;1.70;;;;;;;;;;5091516;28;20043;-86
2023/12/09 13:15:43;;;;;;;3.67;1.27;;;;;;;;;;5094050;28;20482;-83
2023/12/09 13:18:13;;;;;;;3.17;1.33;;;;;;;;;;5093915;28;20048;-84
2023/12/09 13:20:49;;;;;;;2.35;1.30;;;;;;;;;;5093565;28;20051;-83
2023/12/09 13:23:19;;;;;;;1.20;0.70;;;;;;;;;;5076693;28;20367;-83
2023/12/09 13:25:49;;;;;;;2.50;1.52;;;;;;;;;;5093105;28;20044;-84
2023/12/09 13:28:20;;;;;;;5.43;1.77;;;;;;;;;;5093851;28;20052;-83
2023/12/09 13:30:50;;;;;;;4.53;1.50;;;;;;;;;;5093844;28;20051;-83
2023/12/09 13:33:21;;;;;;;3.28;1.25;;;;;;;;;;5092150;28;20032;-82
2023/12/09 13:35:52;;;;;;;3.70;1.58;;;;;;;;;;5066862;28;20044;-83
2023/12/09 13:38:22;;;;;;;5.03;1.25;;;;;;;;;;5071539;28;20052;-83
2023/12/09 13:40:52;;;;;;;2.40;1.27;;;;;;;;;;5064590;28;20433;-81
2023/12/09 13:43:22;;;;;;;2.88;1.85;;;;;;;;;;5077220;28;20044;-83
2023/12/09 13:45:53;;;;;;;4.93;2.08;;;;;;;;;;5072488;28;20479;-82
2023/12/09 13:48:23;;;;;;;1.70;0.90;;;;;;;;;;5073500;28;20401;-82
2023/12/09 13:50:53;;;;;;;2.22;1.30;;;;;;;;;;5038142;28;20055;-82
2023/12/09 13:53:23;;;;;;;2.15;1.15;;;;;;;;;;5054896;28;20059;-83
2023/12/09 13:55:53;;;;;;;1.67;1.13;;;;;;;;;;5072409;28;20418;-83
2023/12/09 13:58:23;;;;;;;3.60;1.40;;;;;;;;;;5072366;28;20049;-83
2023/12/09 14:00:53;;;;;;;2.60;1.02;;;;;;;;;;5069580;28;20426;-83
2023/12/09 14:03:28;;;;;;;3.65;1.20;;;;;;;;;;5092891;28;20410;-85
2023/12/09 14:05:59;;;;;;;2.55;1.35;;;;;;;;;;5084721;28;20037;-83
2023/12/09 14:08:29;;;;;;;3.55;1.60;;;;;;;;;;5091377;28;20036;-82
2023/12/09 14:11:02;;;;;;;5.47;1.30;;;;;;;;;;5092365;28;20047;-83
2023/12/09 14:13:32;;;;;;;2.58;0.65;;;;;;;;;;5093518;28;20383;-83
2023/12/09 14:16:03;;;;;;;2.90;1.45;;;;;;;;;;5075097;28;20051;-83
2023/12/09 14:18:33;;;;;;;3.05;1.40;;;;;;;;;;5075623;28;20032;-83
2023/12/09 14:21:05;;;;;;;2.00;1.23;;;;;;;;;;5090345;28;20513;-84
2023/12/09 14:23:37;;;;;;;3.15;1.48;;;;;;;;;;5092407;28;20110;-84
2023/12/09 14:26:07;;;;;;;2.75;1.45;;;;;;;;;;5093685;28;20052;-82
2023/12/09 14:28:37;;;;;;;1.88;1.48;;;;;;;;;;5074555;28;20052;-83
2023/12/09 14:31:07;;;;;;;5.30;1.60;;;;;;;;;;5057439;28;20491;-83
2023/12/09 14:33:39;;;;;;;1.73;1.42;;;;;;;;;;5073776;28;20044;-82
2023/12/09 14:36:10;;;;;;;2.22;1.40;;;;;;;;;;5090496;28;20051;-83
2023/12/09 14:38:41;;;;;;;1.30;1.10;;;;;;;;;;5091141;28;20035;-84
2023/12/09 14:41:11;;;;;;;2.50;1.13;;;;;;;;;;5090579;28;20436;-83
2023/12/09 14:43:41;;;;;;;3.72;1.70;;;;;;;;;;5073692;28;20044;-82
2023/12/09 14:46:15;;;;;;;1.13;0.80;;;;;;;;;;5092113;28;20387;-83
2023/12/09 14:48:45;;;;;;;2.15;1.40;;;;;;;;;;5092161;28;20055;-83
2023/12/09 14:51:19;;;;;;;1.92;1.35;;;;;;;;;;5073339;28;20494;-84
2023/12/09 14:54:06;;;;;;;2.10;1.30;;;;;;;;;;5074931;28;20040;-84
2023/12/09 14:56:36;;;;;;;2.25;1.25;;;;;;;;;;5055334;28;20486;-85
2023/12/09 14:59:07;;;;;;;1.67;1.05;;;;;;;;;;5072645;28;20491;-84
2023/12/09 15:01:37;;;;;;;2.90;1.73;;;;;;;;;;5053572;28;20048;-85
2023/12/09 15:04:07;;;;;;;1.85;1.17;;;;;;;;;;5074912;28;20439;-85
2023/12/09 15:06:37;;;;;;;3.78;1.40;;;;;;;;;;5093123;28;20052;-83